createdAt,value
2023-04-22T00:00:54.648Z,115.80
2023-04-22T00:03:22.945Z,115.87
2023-04-22T00:05:50.666Z,116.67
2023-04-22T00:08:18.145Z,115.47
2023-04-22T00:10:45.148Z,114.73
2023-04-22T00:13:12.651Z,116.60
2023-04-22T00:15:40.288Z,116.80
2023-04-22T00:18:13.525Z,116.97
2023-04-22T00:20:43.762Z,116.87
2023-04-22T00:23:13.060Z,116.40
2023-04-22T00:25:40.816Z,116.27
2023-04-22T00:28:08.128Z,115.63
2023-04-22T00:30:36.388Z,115.83
2023-04-22T00:33:04.939Z,117.03
2023-04-22T00:35:32.388Z,116.30
2023-04-22T00:37:59.468Z,116.60
2023-04-22T00:40:26.605Z,116.17
2023-04-22T00:42:54.696Z,116.60
2023-04-22T00:45:22.322Z,116.10
2023-04-22T00:47:49.787Z,115.00
2023-04-22T00:50:17.381Z,116.23
2023-04-22T00:52:44.608Z,116.80
2023-04-22T00:55:12.396Z,115.67
2023-04-22T00:57:40.612Z,115.10
2023-04-22T01:00:10.012Z,116.77
2023-04-22T01:02:38.791Z,116.30
2023-04-22T01:05:09.538Z,116.57
2023-04-22T01:07:37.555Z,116.20
2023-04-22T01:10:06.145Z,116.47
2023-04-22T01:12:33.871Z,114.87
2023-04-22T01:15:04.289Z,116.80
2023-04-22T01:17:33.612Z,117.00
2023-04-22T01:20:04.285Z,116.50
2023-04-22T01:22:40.270Z,116.57
2023-04-22T01:25:09.480Z,115.37
2023-04-22T01:27:37.292Z,116.40
2023-04-22T01:30:07.169Z,116.20
2023-04-22T01:32:34.928Z,117.03
2023-04-22T01:35:04.010Z,116.57
2023-04-22T01:37:31.438Z,115.47
2023-04-22T01:39:59.286Z,115.90
2023-04-22T01:42:27.992Z,116.97
2023-04-22T01:44:55.017Z,115.37
2023-04-22T01:47:22.333Z,115.57
2023-04-22T01:49:49.805Z,116.47
2023-04-22T01:52:17.304Z,116.80
2023-04-22T01:54:44.708Z,116.40
2023-04-22T01:57:16.452Z,116.73
2023-04-22T01:59:44.147Z,116.80
2023-04-22T02:02:11.629Z,116.97
2023-04-22T02:04:39.809Z,116.80
2023-04-22T02:07:07.328Z,116.57
2023-04-22T02:09:38.769Z,116.40
2023-04-22T02:12:06.371Z,115.87
2023-04-22T02:14:33.809Z,116.50
2023-04-22T02:17:04.647Z,116.50
2023-04-22T02:19:32.192Z,116.97
2023-04-22T02:21:59.916Z,116.70
2023-04-22T02:24:27.452Z,114.87
2023-04-22T02:26:54.410Z,116.43
2023-04-22T02:29:24.151Z,116.60
2023-04-22T02:31:51.281Z,117.27
2023-04-22T02:34:18.650Z,116.40
2023-04-22T02:36:46.135Z,115.60
2023-04-22T02:39:14.002Z,116.40
2023-04-22T02:41:41.779Z,115.67
2023-04-22T02:44:09.284Z,116.20
2023-04-22T02:46:37.543Z,116.67
2023-04-22T02:49:05.293Z,116.17
2023-04-22T02:51:33.429Z,115.47
2023-04-22T02:54:00.885Z,116.10
2023-04-22T02:56:28.293Z,117.33
2023-04-22T02:58:55.453Z,116.87
2023-04-22T03:01:22.620Z,116.57
2023-04-22T03:03:50.689Z,114.80
2023-04-22T03:06:22.977Z,114.90
2023-04-22T03:08:50.845Z,115.87
2023-04-22T03:11:17.853Z,116.57
2023-04-22T03:13:45.505Z,116.97
2023-04-22T03:16:13.435Z,116.60
2023-04-22T03:18:41.884Z,116.20
2023-04-22T03:21:11.480Z,117.00
2023-04-22T03:23:40.899Z,117.23
2023-04-22T03:26:08.313Z,116.77
2023-04-22T03:28:36.075Z,116.87
2023-04-22T03:31:04.118Z,115.87
2023-04-22T03:33:32.285Z,116.80
2023-04-22T03:36:06.548Z,116.90
2023-04-22T03:38:34.368Z,117.90
2023-04-22T03:41:01.938Z,116.97
2023-04-22T03:43:42.280Z,116.30
2023-04-22T03:46:10.714Z,116.90
2023-04-22T03:48:41.402Z,117.20
2023-04-22T03:51:14.606Z,115.47
2023-04-22T03:53:42.472Z,117.13
2023-04-22T03:56:13.067Z,116.30
2023-04-22T03:58:44.790Z,116.47
2023-04-22T04:01:12.280Z,118.07
2023-04-22T04:03:42.949Z,116.87
2023-04-22T04:06:12.500Z,118.43
2023-04-22T04:08:39.930Z,117.80
2023-04-22T04:11:10.857Z,117.30
2023-04-22T04:13:38.374Z,118.27
2023-04-22T04:16:16.851Z,117.30
2023-04-22T04:18:50.896Z,118.30
2023-04-22T04:21:18.592Z,117.77
2023-04-22T04:23:50.274Z,118.07
2023-04-22T04:26:20.351Z,117.20
2023-04-22T04:28:52.176Z,117.90
2023-04-22T04:31:20.029Z,118.27
2023-04-22T04:33:47.613Z,117.03
2023-04-22T04:36:15.330Z,117.53
2023-04-22T04:38:44.399Z,117.87
2023-04-22T04:41:11.967Z,117.40
2023-04-22T04:43:40.574Z,118.27
2023-04-22T04:46:29.529Z,116.53
2023-04-22T04:48:58.575Z,118.17
2023-04-22T04:51:28.332Z,116.97
2023-04-22T04:53:59.968Z,115.47
2023-04-22T04:56:32.527Z,118.00
2023-04-22T04:59:00.282Z,117.97
2023-04-22T05:01:29.108Z,117.30
2023-04-22T05:04:02.345Z,117.87
2023-04-22T05:06:30.034Z,116.70
2023-04-22T05:09:02.792Z,117.00
2023-04-22T05:11:30.639Z,116.37
2023-04-22T05:14:00.538Z,115.07
2023-04-22T05:16:33.438Z,117.37
2023-04-22T05:19:01.389Z,117.07
2023-04-22T05:21:28.409Z,116.90
2023-04-22T05:23:56.313Z,117.00
2023-04-22T05:26:24.319Z,117.07
2023-04-22T05:28:51.641Z,115.30
2023-04-22T05:31:20.086Z,115.23
2023-04-22T05:33:48.303Z,116.30
2023-04-22T05:36:16.053Z,116.40
2023-04-22T05:38:45.240Z,116.33
2023-04-22T05:41:13.775Z,116.77
2023-04-22T05:43:40.992Z,116.60
2023-04-22T05:46:14.665Z,116.03
2023-04-22T05:48:43.277Z,115.40
2023-04-22T05:51:23.788Z,116.10
2023-04-22T05:53:51.926Z,117.00
2023-04-22T05:56:20.916Z,115.87
2023-04-22T05:58:48.369Z,116.23
2023-04-22T06:01:20.740Z,116.00
2023-04-22T06:04:18.903Z,115.80
2023-04-22T06:06:47.640Z,116.27
2023-04-22T06:09:14.653Z,115.70
2023-04-22T06:11:42.987Z,116.40
2023-04-22T06:14:10.596Z,115.63
2023-04-22T06:16:39.751Z,115.93
2023-04-22T06:19:08.164Z,115.60
2023-04-22T06:21:38.575Z,115.70
2023-04-22T06:24:06.095Z,115.80
2023-04-22T06:26:33.653Z,115.30
2023-04-22T06:29:02.815Z,115.50
2023-04-22T06:31:29.845Z,115.67
2023-04-22T06:33:57.353Z,115.50
2023-04-22T06:36:27.362Z,115.87
2023-04-22T06:39:01.036Z,115.40
2023-04-22T06:41:53.047Z,116.37
2023-04-22T06:44:58.763Z,115.30
2023-04-22T06:47:37.703Z,115.30
2023-04-22T06:50:14.715Z,115.60
2023-04-22T06:52:53.126Z,115.60
2023-04-22T06:55:20.411Z,115.57
2023-04-22T06:57:48.360Z,115.67
2023-04-22T07:00:16.097Z,115.97
2023-04-22T07:02:43.821Z,115.30
2023-04-22T07:05:11.206Z,115.10
2023-04-22T07:07:38.630Z,115.73
2023-04-22T07:10:07.115Z,115.63
2023-04-22T07:12:44.710Z,115.00
2023-04-22T07:15:11.792Z,115.13
2023-04-22T07:17:39.115Z,114.70
2023-04-22T07:20:07.428Z,115.27
2023-04-22T07:22:35.021Z,115.10
2023-04-22T07:25:02.716Z,115.40
2023-04-22T07:27:29.955Z,115.73
2023-04-22T07:29:56.947Z,115.20
2023-04-22T07:32:24.004Z,115.67
2023-04-22T07:34:51.357Z,115.30
2023-04-22T07:37:18.334Z,115.87
2023-04-22T07:39:45.308Z,115.57
2023-04-22T07:42:12.751Z,115.20
2023-04-22T07:44:40.284Z,114.17
2023-04-22T07:47:08.459Z,114.97
2023-04-22T07:49:35.672Z,114.97
2023-04-22T07:52:02.706Z,115.17
2023-04-22T07:54:29.760Z,114.87
2023-04-22T07:56:58.187Z,114.83
2023-04-22T07:59:25.783Z,115.07
2023-04-22T08:03:57.279Z,114.70
2023-04-22T08:06:24.676Z,114.67
2023-04-22T08:08:52.103Z,114.00
2023-04-22T08:11:19.169Z,114.47
2023-04-22T08:13:46.373Z,114.40
2023-04-22T08:16:13.494Z,114.53
2023-04-22T08:18:40.595Z,113.97
2023-04-22T08:21:08.084Z,113.70
2023-04-22T08:23:35.566Z,113.97
2023-04-22T08:26:04.118Z,113.87
2023-04-22T08:28:31.531Z,113.60
2023-04-22T08:30:59.105Z,113.57
2023-04-22T08:33:27.405Z,113.50
2023-04-22T08:35:54.996Z,113.27
2023-04-22T08:38:22.454Z,112.10
2023-04-22T08:40:50.497Z,113.67
2023-04-22T08:43:18.222Z,112.90
2023-04-22T08:45:45.830Z,112.40
2023-04-22T08:48:13.852Z,112.77
2023-04-22T08:50:41.513Z,113.00
2023-04-22T08:53:08.763Z,113.17
2023-04-22T08:55:36.945Z,111.77
2023-04-22T08:58:05.934Z,111.37
2023-04-22T09:00:34.490Z,110.37
2023-04-22T09:03:03.532Z,111.87
2023-04-22T09:05:34.400Z,110.47
2023-04-22T09:08:03.303Z,111.73
2023-04-22T09:10:33.582Z,110.37
2023-04-22T09:13:05.491Z,111.27
2023-04-22T09:15:33.811Z,110.93
2023-04-22T09:18:04.371Z,111.27
2023-04-22T09:20:31.999Z,111.23
2023-04-22T09:23:05.055Z,111.37
2023-04-22T09:25:37.057Z,109.67
2023-04-22T09:28:04.781Z,110.67
2023-04-22T09:30:36.473Z,110.60
2023-04-22T09:33:07.396Z,110.30
2023-04-22T09:35:41.134Z,110.80
2023-04-22T09:38:11.847Z,110.87
2023-04-22T09:40:43.778Z,110.20
2023-04-22T09:43:12.007Z,110.30
2023-04-22T09:45:42.295Z,110.50
2023-04-22T09:48:10.775Z,110.10
2023-04-22T09:50:49.242Z,111.77
2023-04-22T09:53:21.831Z,111.57
2023-04-22T09:55:53.865Z,110.93
2023-04-22T09:58:23.777Z,110.57
2023-04-22T10:00:57.049Z,111.80
2023-04-22T10:03:24.960Z,110.57
2023-04-22T10:05:52.525Z,110.90
2023-04-22T10:08:19.608Z,112.70
2023-04-22T10:10:47.231Z,113.47
2023-04-22T10:13:14.686Z,112.47
2023-04-22T10:15:53.018Z,112.97
2023-04-22T10:18:27.439Z,112.47
2023-04-22T10:20:58.169Z,114.20
2023-04-22T10:23:26.017Z,113.20
2023-04-22T10:25:57.443Z,112.07
2023-04-22T10:28:30.004Z,110.97
2023-04-22T10:30:57.164Z,110.57
2023-04-22T10:33:24.157Z,111.17
2023-04-22T10:36:17.928Z,110.67
2023-04-22T10:39:05.070Z,110.47
2023-04-22T10:41:35.629Z,109.53
2023-04-22T10:44:07.989Z,109.37
2023-04-22T10:46:37.142Z,110.07
2023-04-22T10:49:13.731Z,109.90
2023-04-22T10:51:53.001Z,109.87
2023-04-22T10:54:28.668Z,109.40
2023-04-22T10:57:15.510Z,109.97
2023-04-22T10:59:50.008Z,110.13
2023-04-22T11:02:19.503Z,110.50
2023-04-22T11:04:47.616Z,110.83
2023-04-22T11:07:22.582Z,110.07
2023-04-22T11:10:09.557Z,110.47
2023-04-22T11:12:39.710Z,111.27
2023-04-22T11:15:08.833Z,110.00
2023-04-22T11:17:42.048Z,111.97
2023-04-22T11:20:10.891Z,111.77
2023-04-22T11:22:44.568Z,112.07
2023-04-22T11:25:12.559Z,111.90
2023-04-22T11:27:43.253Z,110.47
2023-04-22T11:30:18.124Z,112.17
2023-04-22T11:32:50.639Z,113.00
2023-04-22T11:35:28.854Z,111.47
2023-04-22T11:38:04.438Z,111.07
2023-04-22T11:40:46.209Z,110.17
2023-04-22T11:43:14.822Z,109.10
2023-04-22T11:45:42.448Z,109.50
2023-04-22T11:48:11.710Z,109.80
2023-04-22T11:50:44.240Z,108.77
2023-04-22T11:53:23.969Z,109.27
2023-04-22T11:55:52.735Z,109.17
2023-04-22T11:58:27.084Z,109.57
2023-04-22T12:00:58.630Z,109.23
2023-04-22T12:03:29.349Z,109.27
2023-04-22T12:06:04.085Z,109.50
2023-04-22T12:08:43.579Z,109.57
2023-04-22T12:11:12.731Z,109.57
2023-04-22T12:13:43.043Z,109.33
2023-04-22T12:16:17.650Z,109.63
2023-04-22T12:18:53.728Z,109.53
2023-04-22T12:21:28.142Z,108.90
2023-04-22T12:24:00.385Z,109.77
2023-04-22T12:26:28.160Z,109.53
2023-04-22T12:28:58.166Z,109.60
2023-04-22T12:31:27.314Z,109.27
2023-04-22T12:33:54.758Z,109.17
2023-04-22T12:36:24.194Z,109.10
2023-04-22T12:38:52.212Z,109.57
2023-04-22T12:41:19.742Z,109.27
2023-04-22T12:43:47.641Z,110.27
2023-04-22T12:46:14.964Z,110.47
2023-04-22T12:48:42.710Z,111.17
2023-04-22T12:51:10.227Z,110.30
2023-04-22T12:53:37.939Z,111.97
2023-04-22T12:56:05.611Z,112.20
2023-04-22T12:58:33.005Z,111.23
2023-04-22T13:01:00.386Z,112.50
2023-04-22T13:03:28.300Z,111.80
2023-04-22T13:05:55.466Z,111.77
2023-04-22T13:08:23.053Z,111.07
2023-04-22T13:10:50.305Z,110.27
2023-04-22T13:13:19.251Z,110.33
2023-04-22T13:15:53.334Z,109.27
2023-04-22T13:18:23.288Z,109.90
2023-04-22T13:20:51.490Z,108.70
2023-04-22T13:23:21.353Z,109.27
2023-04-22T13:25:48.661Z,109.47
2023-04-22T13:28:16.049Z,109.90
2023-04-22T13:30:43.014Z,109.63
2023-04-22T13:33:10.155Z,110.03
2023-04-22T13:35:37.895Z,110.27
2023-04-22T13:38:06.197Z,111.03
2023-04-22T13:40:33.685Z,111.17
2023-04-22T13:43:01.285Z,111.00
2023-04-22T13:45:28.508Z,110.50
2023-04-22T13:47:56.011Z,110.87
2023-04-22T13:50:24.026Z,110.17
2023-04-22T13:52:51.390Z,110.17
2023-04-22T13:55:18.977Z,110.40
2023-04-22T13:57:46.073Z,109.77
2023-04-22T14:00:13.912Z,110.67
2023-04-22T14:02:41.020Z,110.70
2023-04-22T14:05:10.481Z,111.07
2023-04-22T14:07:37.651Z,110.43
2023-04-22T14:10:08.290Z,110.17
2023-04-22T14:12:35.490Z,110.60
2023-04-22T14:15:02.526Z,109.97
2023-04-22T14:17:29.628Z,109.30
2023-04-22T14:19:56.730Z,109.60
2023-04-22T14:22:23.812Z,110.20
2023-04-22T14:24:51.205Z,110.37
2023-04-22T14:27:18.259Z,109.93
2023-04-22T14:29:46.041Z,109.67
2023-04-22T14:32:13.126Z,110.37
2023-04-22T14:34:40.145Z,109.53
2023-04-22T14:37:07.585Z,109.90
2023-04-22T14:39:34.582Z,109.57
2023-04-22T14:42:02.432Z,110.40
2023-04-22T14:44:32.680Z,111.43
2023-04-22T14:47:00.955Z,109.67
2023-04-22T14:49:31.412Z,108.77
2023-04-22T14:52:01.138Z,110.63
2023-04-22T14:54:28.540Z,109.83
2023-04-22T14:56:58.873Z,110.40
2023-04-22T14:59:27.195Z,111.30
2023-04-22T15:02:00.193Z,111.27
2023-04-22T15:04:28.326Z,111.40
2023-04-22T15:06:58.462Z,110.80
2023-04-22T15:09:29.425Z,110.53
2023-04-22T15:11:59.387Z,110.63
2023-04-22T15:14:26.515Z,110.63
2023-04-22T15:16:54.370Z,110.80
2023-04-22T15:19:25.835Z,118.50
2023-04-22T15:21:53.914Z,111.37
2023-04-22T15:24:24.582Z,111.40
2023-04-22T15:26:53.831Z,110.50
2023-04-22T15:29:25.075Z,115.60
2023-04-22T15:31:54.542Z,111.37
2023-04-22T15:34:22.019Z,112.03
2023-04-22T15:36:49.193Z,110.87
2023-04-22T15:39:22.384Z,111.30
2023-04-22T15:41:49.513Z,111.87
2023-04-22T15:44:19.792Z,111.27
2023-04-22T15:46:48.000Z,114.50
2023-04-22T15:49:15.506Z,112.97
2023-04-22T15:51:43.433Z,112.00
2023-04-22T15:54:10.471Z,112.97
2023-04-22T15:56:39.733Z,113.47
2023-04-22T15:59:07.710Z,113.60
2023-04-22T16:01:34.731Z,114.07
2023-04-22T16:04:02.345Z,114.27
2023-04-22T16:06:30.790Z,114.47
2023-04-22T16:09:00.122Z,114.77
2023-04-22T16:11:33.649Z,115.17
2023-04-22T16:14:01.837Z,114.60
2023-04-22T16:16:29.478Z,115.27
2023-04-22T16:18:56.540Z,114.77
2023-04-22T16:21:24.338Z,115.27
2023-04-22T16:23:51.815Z,114.97
2023-04-22T16:26:18.767Z,115.20
2023-04-22T16:28:47.786Z,115.07
2023-04-22T16:31:18.060Z,115.20
2023-04-22T16:33:46.137Z,115.40
2023-04-22T16:36:13.642Z,115.47
2023-04-22T16:38:40.725Z,115.37
2023-04-22T16:41:07.716Z,115.17
2023-04-22T16:43:34.794Z,115.30
2023-04-22T16:46:01.801Z,115.70
2023-04-22T16:48:29.250Z,115.27
2023-04-22T16:50:56.174Z,115.30
2023-04-22T16:53:23.248Z,114.83
2023-04-22T16:55:51.311Z,115.07
2023-04-22T16:58:18.328Z,115.40
2023-04-22T17:00:47.572Z,115.10
2023-04-22T17:03:16.041Z,115.40
2023-04-22T17:05:43.487Z,115.47
2023-04-22T17:08:10.456Z,115.53
2023-04-22T17:10:45.448Z,115.67
2023-04-22T17:13:16.778Z,115.47
2023-04-22T17:15:44.260Z,115.77
2023-04-22T17:18:11.852Z,114.90
2023-04-22T17:20:39.167Z,115.50
2023-04-22T17:23:06.132Z,115.67
2023-04-22T17:25:33.130Z,116.07
2023-04-22T17:28:01.049Z,115.83
2023-04-22T17:30:28.522Z,115.97
2023-04-22T17:32:55.917Z,115.80
2023-04-22T17:35:23.303Z,115.70
2023-04-22T17:37:50.712Z,116.20
2023-04-22T17:40:17.803Z,115.60
2023-04-22T17:42:46.516Z,115.73
2023-04-22T17:45:13.899Z,116.37
2023-04-22T17:47:41.120Z,115.97
2023-04-22T17:50:08.870Z,116.23
2023-04-22T17:52:36.479Z,115.90
2023-04-22T17:55:03.572Z,116.60
2023-04-22T17:57:31.126Z,116.40
2023-04-22T17:59:58.698Z,116.50
2023-04-22T18:02:25.960Z,116.03
2023-04-22T18:04:53.225Z,116.40
2023-04-22T18:07:20.303Z,116.10
2023-04-22T18:09:49.394Z,116.00
2023-04-22T18:12:16.849Z,116.57
2023-04-22T18:14:43.888Z,115.90
2023-04-22T18:17:12.496Z,116.50
2023-04-22T18:19:40.232Z,116.03
2023-04-22T18:22:07.862Z,116.57
2023-04-22T18:24:34.991Z,115.90
2023-04-22T18:27:02.681Z,116.77
2023-04-22T18:29:29.787Z,116.97
2023-04-22T18:31:57.554Z,116.80
2023-04-22T18:34:25.083Z,116.77
2023-04-22T18:36:52.579Z,117.20
2023-04-22T18:39:19.615Z,116.50
2023-04-22T18:41:46.600Z,116.90
2023-04-22T18:44:14.404Z,116.87
2023-04-22T18:46:41.661Z,117.20
2023-04-22T18:49:09.106Z,116.97
2023-04-22T18:51:37.902Z,117.27
2023-04-22T18:54:07.885Z,117.87
2023-04-22T18:56:35.020Z,117.60
2023-04-22T18:59:02.444Z,117.73
2023-04-22T19:01:29.582Z,117.53
2023-04-22T19:03:57.228Z,118.17
2023-04-22T19:06:24.748Z,117.57
2023-04-22T19:08:52.863Z,117.60
2023-04-22T19:11:20.494Z,117.00
2023-04-22T19:13:48.018Z,117.13
2023-04-22T19:16:15.632Z,117.30
2023-04-22T19:18:44.574Z,117.23
2023-04-22T19:21:11.648Z,117.67
2023-04-22T19:23:40.608Z,117.10
2023-04-22T19:26:11.353Z,117.00
2023-04-22T19:28:38.768Z,117.00
2023-04-22T19:31:07.237Z,117.30
2023-04-22T19:33:34.914Z,117.47
2023-04-22T19:36:02.339Z,117.30
2023-04-22T19:38:29.829Z,117.60
2023-04-22T19:40:57.887Z,117.53
2023-04-22T19:43:25.547Z,117.97
2023-04-22T19:45:56.153Z,117.60
2023-04-22T19:48:24.115Z,117.60
2023-04-22T19:50:51.295Z,117.80
2023-04-22T19:53:19.776Z,117.77
2023-04-22T19:55:47.409Z,117.97
2023-04-22T19:58:14.938Z,117.67
2023-04-22T20:00:42.774Z,117.80
2023-04-22T20:03:13.007Z,117.20
2023-04-22T20:05:41.012Z,118.00
2023-04-22T20:08:09.296Z,117.70
2023-04-22T20:10:37.975Z,117.90
2023-04-22T20:13:05.753Z,117.80
2023-04-22T20:15:33.219Z,117.93
2023-04-22T20:18:00.658Z,118.17
2023-04-22T20:20:28.785Z,117.97
2023-04-22T20:23:01.388Z,117.90
2023-04-22T20:25:30.778Z,118.27
2023-04-22T20:27:58.530Z,117.80
2023-04-22T20:30:26.766Z,117.93
2023-04-22T20:32:54.495Z,117.90
2023-04-22T20:35:22.365Z,118.20
2023-04-22T20:37:53.441Z,117.90
2023-04-22T20:40:23.301Z,117.60
2023-04-22T20:42:52.146Z,118.27
2023-04-22T20:45:20.224Z,117.93
2023-04-22T20:47:48.381Z,117.97
2023-04-22T20:50:16.049Z,117.70
2023-04-22T20:52:43.329Z,117.90
2023-04-22T20:55:10.972Z,118.07
2023-04-22T20:57:38.504Z,117.23
2023-04-22T21:00:07.308Z,117.50
2023-04-22T21:02:36.705Z,117.73
2023-04-22T21:05:05.241Z,117.10
2023-04-22T21:07:34.653Z,117.90
2023-04-22T21:10:02.037Z,117.17
2023-04-22T21:12:29.598Z,118.07
2023-04-22T21:14:57.460Z,117.50
2023-04-22T21:17:32.217Z,117.53
2023-04-22T21:20:04.101Z,117.70
2023-04-22T21:22:31.986Z,117.47
2023-04-22T21:25:00.192Z,118.30
2023-04-22T21:27:27.802Z,118.10
2023-04-22T21:29:55.501Z,117.77
2023-04-22T21:32:22.992Z,118.30
2023-04-22T21:34:50.054Z,118.30
2023-04-22T21:37:17.504Z,118.20
2023-04-22T21:39:44.918Z,118.27
2023-04-22T21:42:11.948Z,118.10
2023-04-22T21:44:39.465Z,118.03
2023-04-22T21:47:06.973Z,118.20
2023-04-22T21:49:34.484Z,118.30
2023-04-22T21:52:01.675Z,118.67
2023-04-22T21:54:28.753Z,118.50
2023-04-22T21:56:57.661Z,118.40
2023-04-22T21:59:24.762Z,118.90
2023-04-22T22:01:52.454Z,118.27
2023-04-22T22:04:20.012Z,118.70
2023-04-22T22:06:48.697Z,118.97
2023-04-22T22:09:16.134Z,118.43
2023-04-22T22:11:43.160Z,118.57
2023-04-22T22:14:10.589Z,118.47
2023-04-22T22:16:38.242Z,118.60
2023-04-22T22:19:06.343Z,118.57
2023-04-22T22:21:33.419Z,118.87
2023-04-22T22:24:00.895Z,118.60
2023-04-22T22:26:29.069Z,118.60
2023-04-22T22:28:56.530Z,118.27
2023-04-22T22:31:24.056Z,118.43
2023-04-22T22:33:51.082Z,117.93
2023-04-22T22:36:18.936Z,118.80
2023-04-22T22:38:46.633Z,117.57
2023-04-22T22:41:14.004Z,118.20
2023-04-22T22:43:41.532Z,118.50
2023-04-22T22:46:09.169Z,118.30
2023-04-22T22:48:36.995Z,118.77
2023-04-22T22:51:04.529Z,117.57
2023-04-22T22:53:34.131Z,118.17
2023-04-22T22:56:01.623Z,118.17
2023-04-22T22:58:29.487Z,118.30
2023-04-22T23:00:56.498Z,118.00
2023-04-22T23:03:24.081Z,118.07
2023-04-22T23:05:51.509Z,118.20
2023-04-22T23:08:19.069Z,117.80
2023-04-22T23:10:46.483Z,118.00
2023-04-22T23:13:13.956Z,117.63
2023-04-22T23:15:41.067Z,117.60
2023-04-22T23:18:09.268Z,117.80
2023-04-22T23:20:37.419Z,118.17
2023-04-22T23:23:05.658Z,118.07
2023-04-22T23:25:32.970Z,118.07
2023-04-22T23:28:01.471Z,117.87
2023-04-22T23:30:29.321Z,117.40
2023-04-22T23:33:02.456Z,118.00
2023-04-22T23:35:34.781Z,117.40
2023-04-22T23:38:04.285Z,117.87
2023-04-22T23:40:31.703Z,118.27
2023-04-22T23:42:59.692Z,118.17
2023-04-22T23:45:27.174Z,118.47
2023-04-22T23:47:54.254Z,118.10
2023-04-22T23:50:21.460Z,118.10
2023-04-22T23:52:48.911Z,118.37
2023-04-22T23:55:16.324Z,117.90
2023-04-22T23:57:43.714Z,117.60
